Carlyn — WDD6467 — position and weather

sailwx.info

Track history (hours):
 
Tides and Currents Weather Stations Pressure Air Temp Water Temp Dewpoint Dewpoint Depression Visibility Wind Speed Wind Dir Waves Ship Positions

Carlyn

Owner: Four Winds Westward Ho Incororporated, Deer Harbor, WA. More information available from US FCC via Universal Licensing System and Coast Guard Vessel Documentation Center.

Last reported at 2017-Oct-19 20:08 UTC. Time now 2017-Oct-22 13:41 UTC.
Position N 47°40' W 122°23'.

Length 19 m.

Type: Sailing vessel. MMSI: 367150000.

Date/timePositionNaut miles runAvg speedWind from/ knotsBaromVisibWave heightAir tempDewpointWater temp
2017-Oct-19 20:08N 47°40' W 122°23'0 0.0
2017-Oct-19 19:59N 47°40' W 122°23'0 0.0
2017-Oct-19 19:22N 47°40' W 122°23'1 1.4
2017-Oct-19 19:00N 47°40' W 122°24'1 1.1
2017-Oct-19 18:28N 47°40' W 122°24'1 1.6
2017-Oct-19 18:00N 47°41' W 122°24'0 0.0
2017-Oct-19 17:30N 47°41' W 122°24'0 0.0
2017-Oct-18 20:37N 47°41' W 122°24'0 0.0
2017-Oct-18 20:22N 47°41' W 122°24'0 0.0
2017-Oct-18 19:55N 47°41' W 122°24'0 0.2
2017-Oct-18 19:26N 47°41' W 122°24'0 0.4
2017-Oct-18 19:00N 47°41' W 122°24'0 0.4
2017-Oct-18 18:19N 47°41' W 122°24'0 0.0
2017-Oct-18 17:58N 47°41' W 122°24'  
2017-Oct-15 21:59N 47°41' W 122°24'1 2.6
2017-Oct-15 21:29N 47°40' W 122°26'1 1.3
2017-Oct-15 20:58N 47°40' W 122°27'1 1.5
2017-Oct-15 20:30N 47°40' W 122°27'2 3.9
2017-Oct-15 20:01N 47°38' W 122°27'1 2.9
2017-Oct-15 19:30N 47°36' W 122°27'2 3.3
2017-Oct-15 19:00N 47°35' W 122°28'1 2.6
2017-Oct-15 18:30N 47°34' W 122°29'1 1.7
2017-Oct-15 17:55N 47°33' W 122°29'0 0.0
2017-Oct-15 17:25N 47°33' W 122°29'0 0.0
2017-Oct-14 21:40N 47°33' W 122°29'0 0.3
2017-Oct-14 21:30N 47°33' W 122°29'1 1.2
2017-Oct-14 20:57N 47°33' W 122°30'1 1.6
2017-Oct-14 20:31N 47°33' W 122°29'2 3.0
2017-Oct-14 19:59N 47°33' W 122°31'0 0.7
2017-Oct-14 19:27N 47°33' W 122°32'1 1.5
2017-Oct-14 18:52N 47°33' W 122°31'1 2.4
2017-Oct-14 18:30N 47°34' W 122°29'0 0.5
2017-Oct-14 18:00N 47°34' W 122°30'1 1.8
2017-Oct-14 17:29N 47°33' W 122°31'1 2.3
2017-Oct-14 17:00N 47°33' W 122°29'1 0.0
2017-Oct-13 22:37N 47°33' W 122°29'0 0.2
2017-Oct-13 22:30N 47°33' W 122°29'2 2.8
2017-Oct-13 21:57N 47°31' W 122°28'4 8.0
2017-Oct-13 21:30N 47°35' W 122°28'2 4.7
2017-Oct-13 21:00N 47°37' W 122°29'3 4.1
2017-Oct-13 20:09N 47°40' W 122°29'1 3.5
2017-Oct-13 19:54N 47°41' W 122°29'0 0.6
2017-Oct-13 19:22N 47°41' W 122°29'2 5.2
2017-Oct-13 18:59N 47°41' W 122°26'0 0.7
2017-Oct-13 18:30N 47°41' W 122°26'1 1.7
2017-Oct-13 18:00N 47°41' W 122°25'0 0.0
2017-Oct-12 23:31N 47°41' W 122°25'0 2.1
2017-Oct-12 23:26N 47°41' W 122°25'2 3.0
2017-Oct-12 22:46N 47°39' W 122°27'1 4.5
2017-Oct-12 22:31N 47°38' W 122°28'2 3.1
2017-Oct-12 21:59N 47°37' W 122°29'1 1.0
2017-Oct-12 20:38N 47°37' W 122°31'0 0.0
2017-Oct-12 20:14N 47°37' W 122°31'0 0.0
2017-Oct-12 19:56N 47°37' W 122°31'0 0.2
2017-Oct-12 19:07N 47°37' W 122°31'0 3.5
2017-Oct-12 18:59N 47°37' W 122°30'1 2.5
2017-Oct-12 18:30N 47°37' W 122°29'1 3.0
2017-Oct-12 18:00N 47°36' W 122°27'2 2.8
2017-Oct-12 17:29N 47°36' W 122°29'  
Track history (hours):
 
Tides and Currents Weather Stations Pressure Air Temp Water Temp Dewpoint Dewpoint Depression Visibility Wind Speed Wind Dir Waves Ship Positions

Carlyn

Owner: Four Winds Westward Ho Incororporated, Deer Harbor, WA. More information available from US FCC via Universal Licensing System and Coast Guard Vessel Documentation Center.

Last reported at 2017-Oct-19 20:08 UTC. Time now 2017-Oct-22 13:41 UTC.
Position N 47°40' W 122°23'.

Length 19 m.

Type: Sailing vessel. MMSI: 367150000.

Date/timePositionNaut miles runAvg speedWind from/ knotsBaromVisibWave heightAir tempDewpointWater temp
2017-Oct-19 20:08N 47°40' W 122°23'0 0.0
2017-Oct-19 19:59N 47°40' W 122°23'0 0.0
2017-Oct-19 19:22N 47°40' W 122°23'1 1.4
2017-Oct-19 19:00N 47°40' W 122°24'1 1.1
2017-Oct-19 18:28N 47°40' W 122°24'1 1.6
2017-Oct-19 18:00N 47°41' W 122°24'0 0.0
2017-Oct-19 17:30N 47°41' W 122°24'0 0.0
2017-Oct-18 20:37N 47°41' W 122°24'0 0.0
2017-Oct-18 20:22N 47°41' W 122°24'0 0.0
2017-Oct-18 19:55N 47°41' W 122°24'0 0.2
2017-Oct-18 19:26N 47°41' W 122°24'0 0.4
2017-Oct-18 19:00N 47°41' W 122°24'0 0.4
2017-Oct-18 18:19N 47°41' W 122°24'0 0.0
2017-Oct-18 17:58N 47°41' W 122°24'  
2017-Oct-15 21:59N 47°41' W 122°24'1 2.6
2017-Oct-15 21:29N 47°40' W 122°26'1 1.3
2017-Oct-15 20:58N 47°40' W 122°27'1 1.5
2017-Oct-15 20:30N 47°40' W 122°27'2 3.9
2017-Oct-15 20:01N 47°38' W 122°27'1 2.9
2017-Oct-15 19:30N 47°36' W 122°27'2 3.3
2017-Oct-15 19:00N 47°35' W 122°28'1 2.6
2017-Oct-15 18:30N 47°34' W 122°29'1 1.7
2017-Oct-15 17:55N 47°33' W 122°29'0 0.0
2017-Oct-15 17:25N 47°33' W 122°29'0 0.0
2017-Oct-14 21:40N 47°33' W 122°29'0 0.3
2017-Oct-14 21:30N 47°33' W 122°29'1 1.2
2017-Oct-14 20:57N 47°33' W 122°30'1 1.6
2017-Oct-14 20:31N 47°33' W 122°29'2 3.0
2017-Oct-14 19:59N 47°33' W 122°31'0 0.7
2017-Oct-14 19:27N 47°33' W 122°32'1 1.5
2017-Oct-14 18:52N 47°33' W 122°31'1 2.4
2017-Oct-14 18:30N 47°34' W 122°29'0 0.5
2017-Oct-14 18:00N 47°34' W 122°30'1 1.8
2017-Oct-14 17:29N 47°33' W 122°31'1 2.3
2017-Oct-14 17:00N 47°33' W 122°29'1 0.0
2017-Oct-13 22:37N 47°33' W 122°29'0 0.2
2017-Oct-13 22:30N 47°33' W 122°29'2 2.8
2017-Oct-13 21:57N 47°31' W 122°28'4 8.0
2017-Oct-13 21:30N 47°35' W 122°28'2 4.7
2017-Oct-13 21:00N 47°37' W 122°29'3 4.1
2017-Oct-13 20:09N 47°40' W 122°29'1 3.5
2017-Oct-13 19:54N 47°41' W 122°29'0 0.6
2017-Oct-13 19:22N 47°41' W 122°29'2 5.2
2017-Oct-13 18:59N 47°41' W 122°26'0 0.7
2017-Oct-13 18:30N 47°41' W 122°26'1 1.7
2017-Oct-13 18:00N 47°41' W 122°25'0 0.0
2017-Oct-12 23:31N 47°41' W 122°25'0 2.1
2017-Oct-12 23:26N 47°41' W 122°25'2 3.0
2017-Oct-12 22:46N 47°39' W 122°27'1 4.5
2017-Oct-12 22:31N 47°38' W 122°28'2 3.1
2017-Oct-12 21:59N 47°37' W 122°29'1 1.0
2017-Oct-12 20:38N 47°37' W 122°31'0 0.0
2017-Oct-12 20:14N 47°37' W 122°31'0 0.0
2017-Oct-12 19:56N 47°37' W 122°31'0 0.2
2017-Oct-12 19:07N 47°37' W 122°31'0 3.5
2017-Oct-12 18:59N 47°37' W 122°30'1 2.5
2017-Oct-12 18:30N 47°37' W 122°29'1 3.0
2017-Oct-12 18:00N 47°36' W 122°27'2 2.8
2017-Oct-12 17:29N 47°36' W 122°29'  

Dump ship's entire track history